BOE1 KPAE-TNCM
Flight info
| Callsign | BOE1 |
|---|---|
| Flight time | N/A |
| Altitude | 37000 |
| Route | WASRA DCT SEA DCT AUBRN DCT RADDY J20 YKM/N0408F170 V298 SUNED/N0488F370 DCT PDT DCT JELTI DCT KU87I DCT KU81I DCT KU78I DCT REO J523 DERMT/N0493F390 J523 ELY DCT GDGET DCT MLF DCT KU48O DCT KD42Q DCT KA36S DCT CURLY DCT FAKEE DCT KA21W DCT ELOYE DCT UGABE DCT DIESL DCT RODIO DCT GLOCK DCT PSXRE DCT SBILG DCT LCHCH DCT LLARI DCT TBDRJ DCT HRVRK DCT GPTRL DCT PNSLM DCT DTSLN DCT DTSRO DCT SIMPL DCT MAXIM/N0486F410 DCT KEYYS DCT URSUS DCT ARISS DCT ROSEA DCT SOLEI DCT MAYAG DCT MRTEE DCT NOPIT R507 SAPPO DCT DOZGO DCT ZATOG DCT FRATT DCT KOLAO DCT GUYRO |
| Aircraft | B77W/H-SDE1E2E3FGHIJ2J3J4J5M1RWXY/LB1D1 |
Departure
| Time | 2026-04-23 11:16 |
|---|---|
| Airport | Seattle Paine Field International Airport (KPAE) |
Arrival
| Time | N/A |
|---|---|
| Airport | Princess Juliana International Airport (TNCM) |
| Time | Latitude | Longitude | Altitude | Speed | Heading |
|---|---|---|---|---|---|
| 2026-04-23 10:45 | 47.91220 | -122.28069 | 570 ft | 0 kts | 0° |
| 2026-04-23 11:07 | 47.91239 | -122.28069 | 578 ft | 5 kts | 360° |
| 2026-04-23 11:08 | 47.91272 | -122.28078 | 575 ft | 5 kts | 335° |
| 2026-04-23 11:08 | 47.91287 | -122.28123 | 578 ft | 5 kts | 276° |
| 2026-04-23 11:08 | 47.91289 | -122.28180 | 579 ft | 6 kts | 270° |
| 2026-04-23 11:08 | 47.91289 | -122.28246 | 577 ft | 7 kts | 270° |
| 2026-04-23 11:09 | 47.91294 | -122.28316 | 577 ft | 7 kts | 291° |
| 2026-04-23 11:09 | 47.91336 | -122.28349 | 576 ft | 7 kts | 351° |
| 2026-04-23 11:09 | 47.91389 | -122.28352 | 576 ft | 8 kts | 359° |
| 2026-04-23 11:09 | 47.91446 | -122.28353 | 573 ft | 9 kts | 359° |
| 2026-04-23 11:10 | 47.91509 | -122.28354 | 576 ft | 9 kts | 359° |
| 2026-04-23 11:10 | 47.91573 | -122.28356 | 574 ft | 9 kts | 359° |
| 2026-04-23 11:10 | 47.91637 | -122.28358 | 576 ft | 9 kts | 359° |
| 2026-04-23 11:10 | 47.91701 | -122.28363 | 575 ft | 9 kts | 356° |
| 2026-04-23 11:11 | 47.91767 | -122.28371 | 576 ft | 10 kts | 354° |
| 2026-04-23 11:11 | 47.91838 | -122.28381 | 576 ft | 10 kts | 354° |
| 2026-04-23 11:11 | 47.91910 | -122.28389 | 576 ft | 10 kts | 355° |
| 2026-04-23 11:11 | 47.91983 | -122.28397 | 574 ft | 11 kts | 355° |
| 2026-04-23 11:12 | 47.92059 | -122.28406 | 578 ft | 11 kts | 355° |
| 2026-04-23 11:12 | 47.92105 | -122.28411 | 574 ft | 4 kts | 355° |
| 2026-04-23 11:12 | 47.92117 | -122.28412 | 579 ft | 0 kts | 355° |
| 2026-04-23 11:12 | 47.92131 | -122.28414 | 574 ft | 7 kts | 356° |
| 2026-04-23 11:13 | 47.92185 | -122.28421 | 574 ft | 8 kts | 349° |
| 2026-04-23 11:13 | 47.92224 | -122.28476 | 578 ft | 8 kts | 291° |
| 2026-04-23 11:13 | 47.92221 | -122.28559 | 580 ft | 8 kts | 242° |
| 2026-04-23 11:13 | 47.92179 | -122.28585 | 573 ft | 0 kts | 180° |
| 2026-04-23 11:15 | 47.92175 | -122.28586 | 573 ft | 6 kts | 180° |
| 2026-04-23 11:15 | 47.91952 | -122.28583 | 575 ft | 71 kts | 179° |
| 2026-04-23 11:15 | 47.91182 | -122.28564 | 576 ft | 147 kts | 179° |
| 2026-04-23 11:15 | 47.90008 | -122.28524 | 924 ft | 175 kts | 177° |
| 2026-04-23 11:16 | 47.88795 | -122.28398 | 1824 ft | 176 kts | 174° |
| 2026-04-23 11:16 | 47.87978 | -122.28250 | 2373 ft | 180 kts | 174° |
| 2026-04-23 11:16 | 47.86656 | -122.27999 | 2780 ft | 207 kts | 175° |
| 2026-04-23 11:16 | 47.85127 | -122.27711 | 3190 ft | 232 kts | 175° |
| 2026-04-23 11:17 | 47.83464 | -122.27402 | 3858 ft | 248 kts | 175° |
| 2026-04-23 11:17 | 47.81104 | -122.26972 | 4805 ft | 267 kts | 174° |
| 2026-04-23 11:17 | 47.79238 | -122.26637 | 5733 ft | 270 kts | 174° |
| 2026-04-23 11:17 | 47.77965 | -122.26410 | 6377 ft | 275 kts | 174° |
| 2026-04-23 11:18 | 47.76036 | -122.26070 | 7167 ft | 284 kts | 174° |
| 2026-04-23 11:18 | 47.74041 | -122.25721 | 7915 ft | 293 kts | 175° |
| 2026-04-23 11:18 | 47.71988 | -122.25363 | 8724 ft | 301 kts | 175° |
| 2026-04-23 11:18 | 47.69882 | -122.25105 | 9465 ft | 307 kts | 184° |
| 2026-04-23 11:19 | 47.67731 | -122.25423 | 10173 ft | 315 kts | 192° |
| 2026-04-23 11:19 | 47.65517 | -122.25983 | 10595 ft | 335 kts | 194° |
| 2026-04-23 11:19 | 47.63154 | -122.26605 | 10800 ft | 363 kts | 193° |
| 2026-04-23 11:19 | 47.60544 | -122.27251 | 11211 ft | 383 kts | 192° |
| 2026-04-23 11:20 | 47.57867 | -122.27870 | 11991 ft | 395 kts | 192° |
| 2026-04-23 11:20 | 47.55161 | -122.28468 | 12949 ft | 402 kts | 192° |
| 2026-04-23 11:20 | 47.52365 | -122.29076 | 13990 ft | 410 kts | 192° |
| 2026-04-23 11:20 | 47.49516 | -122.29696 | 14924 ft | 416 kts | 192° |
| 2026-04-23 11:21 | 47.46619 | -122.29917 | 15691 ft | 426 kts | 175° |
| 2026-04-23 11:21 | 47.43761 | -122.28604 | 16545 ft | 437 kts | 152° |
| 2026-04-23 11:21 | 47.41308 | -122.25940 | 17551 ft | 440 kts | 133° |
| 2026-04-23 11:21 | 47.39481 | -122.22354 | 18471 ft | 438 kts | 119° |
| 2026-04-23 11:22 | 47.37876 | -122.18482 | 19171 ft | 447 kts | 119° |
| 2026-04-23 11:22 | 47.36197 | -122.14583 | 20004 ft | 452 kts | 120° |
| 2026-04-23 11:22 | 47.34464 | -122.10689 | 20895 ft | 455 kts | 121° |
| 2026-04-23 11:22 | 47.32699 | -122.06796 | 21804 ft | 458 kts | 121° |
| 2026-04-23 11:23 | 47.30911 | -122.02879 | 22646 ft | 463 kts | 121° |
| 2026-04-23 11:23 | 47.29104 | -121.98923 | 23445 ft | 468 kts | 121° |
| 2026-04-23 11:23 | 47.27275 | -121.94918 | 24167 ft | 473 kts | 121° |
| 2026-04-23 11:23 | 47.25435 | -121.90885 | 24848 ft | 477 kts | 121° |
| 2026-04-23 11:24 | 47.23581 | -121.86823 | 25554 ft | 480 kts | 121° |
| 2026-04-23 11:24 | 47.21715 | -121.82739 | 26235 ft | 483 kts | 121° |
| 2026-04-23 11:24 | 47.19834 | -121.78629 | 26879 ft | 487 kts | 121° |
| 2026-04-23 11:24 | 47.17932 | -121.74479 | 27509 ft | 490 kts | 121° |
| 2026-04-23 11:25 | 47.16018 | -121.70307 | 28108 ft | 494 kts | 121° |
| 2026-04-23 11:25 | 47.14090 | -121.66112 | 28684 ft | 497 kts | 121° |
| 2026-04-23 11:25 | 47.12145 | -121.61886 | 29273 ft | 501 kts | 121° |
| 2026-04-23 11:25 | 47.10188 | -121.57638 | 29833 ft | 505 kts | 121° |
| 2026-04-23 11:26 | 47.08212 | -121.53352 | 30238 ft | 510 kts | 121° |
| 2026-04-23 11:26 | 47.06220 | -121.49044 | 30632 ft | 514 kts | 121° |
| 2026-04-23 11:26 | 47.04199 | -121.44681 | 30961 ft | 518 kts | 121° |
| 2026-04-23 11:26 | 47.02174 | -121.40312 | 31439 ft | 518 kts | 121° |
| 2026-04-23 11:27 | 47.00148 | -121.35946 | 31995 ft | 517 kts | 121° |
| 2026-04-23 11:27 | 46.98134 | -121.31614 | 32565 ft | 515 kts | 121° |
| 2026-04-23 11:27 | 46.96115 | -121.27275 | 33070 ft | 515 kts | 120° |
| 2026-04-23 11:27 | 46.94096 | -121.22944 | 33554 ft | 515 kts | 120° |
| 2026-04-23 11:28 | 46.92073 | -121.18610 | 34006 ft | 515 kts | 120° |
| 2026-04-23 11:28 | 46.90049 | -121.14274 | 34340 ft | 519 kts | 121° |
| 2026-04-23 11:28 | 46.88003 | -121.09900 | 34577 ft | 523 kts | 121° |
| 2026-04-23 11:28 | 46.85951 | -121.05525 | 34982 ft | 521 kts | 121° |
| 2026-04-23 11:29 | 46.83904 | -121.01169 | 35439 ft | 519 kts | 121° |
| 2026-04-23 11:29 | 46.81859 | -120.96826 | 35868 ft | 518 kts | 122° |
| 2026-04-23 11:29 | 46.79816 | -120.92489 | 36196 ft | 518 kts | 122° |
| 2026-04-23 11:29 | 46.77772 | -120.88156 | 36560 ft | 518 kts | 122° |
| 2026-04-23 11:30 | 46.75739 | -120.83856 | 36930 ft | 518 kts | 123° |
| 2026-04-23 11:30 | 46.73689 | -120.79524 | 37088 ft | 521 kts | 123° |
| 2026-04-23 11:30 | 46.71623 | -120.75163 | 37099 ft | 523 kts | 123° |
| 2026-04-23 11:31 | 46.67504 | -120.66494 | 37094 ft | 517 kts | 123° |
| 2026-04-23 11:31 | 46.63420 | -120.57924 | 37096 ft | 515 kts | 123° |
| 2026-04-23 11:32 | 46.59370 | -120.49448 | 37122 ft | 512 kts | 124° |
| 2026-04-23 11:32 | 46.55168 | -120.41102 | 37106 ft | 512 kts | 128° |
| 2026-04-23 11:33 | 46.50637 | -120.33129 | 37096 ft | 512 kts | 129° |
| 2026-04-23 11:33 | 46.46092 | -120.25170 | 37079 ft | 512 kts | 129° |
| 2026-04-23 11:34 | 46.41563 | -120.17192 | 37084 ft | 512 kts | 129° |
| 2026-04-23 11:34 | 46.37034 | -120.09215 | 37085 ft | 513 kts | 129° |
| 2026-04-23 11:35 | 46.32495 | -120.01244 | 37090 ft | 513 kts | 129° |
| 2026-04-23 11:35 | 46.27944 | -119.93286 | 37078 ft | 514 kts | 130° |
| 2026-04-23 11:36 | 46.23370 | -119.85345 | 37089 ft | 514 kts | 130° |
| 2026-04-23 11:36 | 46.18786 | -119.77411 | 37098 ft | 515 kts | 130° |
| 2026-04-23 11:37 | 46.14190 | -119.69472 | 37092 ft | 515 kts | 130° |
| 2026-04-23 11:37 | 46.09593 | -119.61550 | 37105 ft | 516 kts | 130° |
| 2026-04-23 11:38 | 46.04984 | -119.53630 | 37118 ft | 516 kts | 130° |
| 2026-04-23 11:38 | 46.00365 | -119.45717 | 37128 ft | 516 kts | 130° |
| 2026-04-23 11:39 | 45.95741 | -119.37816 | 37137 ft | 517 kts | 130° |
| 2026-04-23 11:39 | 45.91106 | -119.29920 | 37137 ft | 517 kts | 130° |
| 2026-04-23 11:40 | 45.86472 | -119.22046 | 37133 ft | 517 kts | 130° |
| 2026-04-23 11:40 | 45.81829 | -119.14181 | 37154 ft | 516 kts | 131° |
| 2026-04-23 11:41 | 45.77215 | -119.06384 | 37140 ft | 516 kts | 131° |
| 2026-04-23 11:41 | 45.72543 | -118.98595 | 37129 ft | 515 kts | 134° |
| 2026-04-23 11:42 | 45.67177 | -118.91851 | 37134 ft | 512 kts | 146° |
| 2026-04-23 11:42 | 45.61162 | -118.86492 | 37134 ft | 509 kts | 152° |
| 2026-04-23 11:43 | 45.55036 | -118.81452 | 37127 ft | 508 kts | 152° |
| 2026-04-23 11:43 | 45.48938 | -118.76386 | 37149 ft | 508 kts | 152° |
| 2026-04-23 11:43 | 45.45870 | -118.73823 | 37304 ft | 511 kts | 152° |
| 2026-04-23 11:44 | 45.42798 | -118.71253 | 37649 ft | 511 kts | 152° |